sensor_id;sensor_type;location;lat;lon;timestamp;temperature;humidity
22779;DHT22;11556;51.194;3.800;2022-10-15T00:00:20;15.00;99.90
22779;DHT22;11556;51.194;3.800;2022-10-15T00:02:46;15.10;99.90
22779;DHT22;11556;51.194;3.800;2022-10-15T00:05:12;15.10;99.90
22779;DHT22;11556;51.194;3.800;2022-10-15T00:07:37;15.00;99.90
22779;DHT22;11556;51.194;3.800;2022-10-15T00:10:03;15.00;99.90
22779;DHT22;11556;51.194;3.800;2022-10-15T00:12:29;15.10;99.90
22779;DHT22;11556;51.194;3.800;2022-10-15T00:14:54;15.20;99.90
22779;DHT22;11556;51.194;3.800;2022-10-15T00:17:20;15.20;99.90
22779;DHT22;11556;51.194;3.800;2022-10-15T00:19:45;15.10;99.90
22779;DHT22;11556;51.194;3.800;2022-10-15T00:22:11;15.10;99.90
22779;DHT22;11556;51.194;3.800;2022-10-15T00:24:36;15.00;99.90
22779;DHT22;11556;51.194;3.800;2022-10-15T00:27:02;15.10;99.90
22779;DHT22;11556;51.194;3.800;2022-10-15T00:29:28;15.10;99.90
22779;DHT22;11556;51.194;3.800;2022-10-15T00:31:53;15.20;99.90
22779;DHT22;11556;51.194;3.800;2022-10-15T00:34:19;15.20;99.90
22779;DHT22;11556;51.194;3.800;2022-10-15T00:36:45;15.20;99.90
22779;DHT22;11556;51.194;3.800;2022-10-15T00:39:10;15.20;99.90
22779;DHT22;11556;51.194;3.800;2022-10-15T00:41:40;15.30;99.90
22779;DHT22;11556;51.194;3.800;2022-10-15T00:47:13;15.10;99.90
22779;DHT22;11556;51.194;3.800;2022-10-15T00:49:44;15.10;99.90
22779;DHT22;11556;51.194;3.800;2022-10-15T00:52:16;15.10;99.90
22779;DHT22;11556;51.194;3.800;2022-10-15T00:54:50;15.10;99.90
22779;DHT22;11556;51.194;3.800;2022-10-15T00:57:17;15.20;99.90
22779;DHT22;11556;51.194;3.800;2022-10-15T00:59:47;15.20;99.90
22779;DHT22;11556;51.194;3.800;2022-10-15T01:02:17;15.20;99.90
22779;DHT22;11556;51.194;3.800;2022-10-15T01:04:43;15.10;99.90
22779;DHT22;11556;51.194;3.800;2022-10-15T01:07:09;15.10;99.90
22779;DHT22;11556;51.194;3.800;2022-10-15T01:09:35;15.10;99.90
22779;DHT22;11556;51.194;3.800;2022-10-15T01:12:01;15.10;99.90
22779;DHT22;11556;51.194;3.800;2022-10-15T01:17:26;14.90;99.90
22779;DHT22;11556;51.194;3.800;2022-10-15T01:20:23;14.80;99.90
22779;DHT22;11556;51.194;3.800;2022-10-15T01:32:02;14.60;99.90
22779;DHT22;11556;51.194;3.800;2022-10-15T01:37:37;14.50;99.90
22779;DHT22;11556;51.194;3.800;2022-10-15T01:42:55;14.40;99.90
22779;DHT22;11556;51.194;3.800;2022-10-15T01:45:27;14.50;99.90
22779;DHT22;11556;51.194;3.800;2022-10-15T01:47:55;14.40;99.90
22779;DHT22;11556;51.194;3.800;2022-10-15T01:50:25;14.40;99.90
22779;DHT22;11556;51.194;3.800;2022-10-15T01:52:54;14.30;99.90
22779;DHT22;11556;51.194;3.800;2022-10-15T01:55:21;14.30;99.90
22779;DHT22;11556;51.194;3.800;2022-10-15T01:57:49;14.20;99.90
22779;DHT22;11556;51.194;3.800;2022-10-15T02:00:15;14.30;99.90
22779;DHT22;11556;51.194;3.800;2022-10-15T02:02:41;14.20;99.90
22779;DHT22;11556;51.194;3.800;2022-10-15T02:05:11;14.20;99.90
22779;DHT22;11556;51.194;3.800;2022-10-15T02:10:53;14.20;99.90
22779;DHT22;11556;51.194;3.800;2022-10-15T02:13:40;14.10;99.90
22779;DHT22;11556;51.194;3.800;2022-10-15T02:16:17;14.10;99.90
22779;DHT22;11556;51.194;3.800;2022-10-15T02:18:49;14.10;99.90
22779;DHT22;11556;51.194;3.800;2022-10-15T02:21:42;14.10;99.90
22779;DHT22;11556;51.194;3.800;2022-10-15T02:24:10;14.00;99.90
22779;DHT22;11556;51.194;3.800;2022-10-15T02:26:36;14.00;99.90
22779;DHT22;11556;51.194;3.800;2022-10-15T02:29:07;14.00;99.90
22779;DHT22;11556;51.194;3.800;2022-10-15T02:31:35;14.00;99.90
22779;DHT22;11556;51.194;3.800;2022-10-15T02:34:04;14.10;99.90
22779;DHT22;11556;51.194;3.800;2022-10-15T02:36:31;14.10;99.90
22779;DHT22;11556;51.194;3.800;2022-10-15T02:38:57;14.10;99.90
22779;DHT22;11556;51.194;3.800;2022-10-15T02:41:27;14.10;99.90
22779;DHT22;11556;51.194;3.800;2022-10-15T02:43:53;14.10;99.90
22779;DHT22;11556;51.194;3.800;2022-10-15T02:46:19;14.10;99.90
22779;DHT22;11556;51.194;3.800;2022-10-15T02:48:45;14.10;99.90
22779;DHT22;11556;51.194;3.800;2022-10-15T02:51:10;14.30;99.90
22779;DHT22;11556;51.194;3.800;2022-10-15T02:53:36;14.30;99.90
22779;DHT22;11556;51.194;3.800;2022-10-15T02:56:01;14.30;99.90
22779;DHT22;11556;51.194;3.800;2022-10-15T02:58:27;14.30;99.90
22779;DHT22;11556;51.194;3.800;2022-10-15T03:00:54;14.30;99.90
22779;DHT22;11556;51.194;3.800;2022-10-15T03:03:19;14.40;99.90
22779;DHT22;11556;51.194;3.800;2022-10-15T03:05:45;14.40;99.90
22779;DHT22;11556;51.194;3.800;2022-10-15T03:08:10;14.40;99.90
22779;DHT22;11556;51.194;3.800;2022-10-15T03:10:36;14.40;99.90
22779;DHT22;11556;51.194;3.800;2022-10-15T03:13:05;14.40;99.90
22779;DHT22;11556;51.194;3.800;2022-10-15T03:15:31;14.40;99.90
22779;DHT22;11556;51.194;3.800;2022-10-15T03:17:57;14.40;99.90
22779;DHT22;11556;51.194;3.800;2022-10-15T03:20:23;14.40;99.90
22779;DHT22;11556;51.194;3.800;2022-10-15T03:22:49;14.40;99.90
22779;DHT22;11556;51.194;3.800;2022-10-15T03:25:14;14.40;99.90
22779;DHT22;11556;51.194;3.800;2022-10-15T03:27:41;14.30;99.90
22779;DHT22;11556;51.194;3.800;2022-10-15T03:30:07;14.30;99.90
22779;DHT22;11556;51.194;3.800;2022-10-15T03:32:32;14.30;99.90
22779;DHT22;11556;51.194;3.800;2022-10-15T03:34:58;14.30;99.90
22779;DHT22;11556;51.194;3.800;2022-10-15T03:37:24;14.30;99.90
22779;DHT22;11556;51.194;3.800;2022-10-15T03:39:49;14.30;99.90
22779;DHT22;11556;51.194;3.800;2022-10-15T03:42:15;14.20;99.90
22779;DHT22;11556;51.194;3.800;2022-10-15T03:44:40;14.10;99.90
22779;DHT22;11556;51.194;3.800;2022-10-15T03:47:06;14.10;99.90
22779;DHT22;11556;51.194;3.800;2022-10-15T03:49:32;14.10;99.90
22779;DHT22;11556;51.194;3.800;2022-10-15T03:51:57;14.10;99.90
22779;DHT22;11556;51.194;3.800;2022-10-15T03:54:23;14.00;99.90
22779;DHT22;11556;51.194;3.800;2022-10-15T03:56:48;14.10;99.90
22779;DHT22;11556;51.194;3.800;2022-10-15T03:59:14;14.10;99.90
22779;DHT22;11556;51.194;3.800;2022-10-15T04:01:41;14.30;99.90
22779;DHT22;11556;51.194;3.800;2022-10-15T04:04:06;14.20;99.90
22779;DHT22;11556;51.194;3.800;2022-10-15T04:06:32;14.20;99.90
22779;DHT22;11556;51.194;3.800;2022-10-15T04:08:59;14.20;99.90
22779;DHT22;11556;51.194;3.800;2022-10-15T04:11:24;14.30;99.90
22779;DHT22;11556;51.194;3.800;2022-10-15T04:13:50;14.30;99.90
22779;DHT22;11556;51.194;3.800;2022-10-15T04:16:16;14.30;99.90
22779;DHT22;11556;51.194;3.800;2022-10-15T04:18:42;14.50;99.90
22779;DHT22;11556;51.194;3.800;2022-10-15T04:21:08;14.50;99.90
22779;DHT22;11556;51.194;3.800;2022-10-15T04:23:34;14.50;99.90
22779;DHT22;11556;51.194;3.800;2022-10-15T04:26:00;14.60;99.90
22779;DHT22;11556;51.194;3.800;2022-10-15T04:28:27;14.60;99.90
22779;DHT22;11556;51.194;3.800;2022-10-15T04:30:56;14.70;99.90
22779;DHT22;11556;51.194;3.800;2022-10-15T04:33:23;14.70;99.90
22779;DHT22;11556;51.194;3.800;2022-10-15T04:36:07;14.70;99.90
22779;DHT22;11556;51.194;3.800;2022-10-15T04:38:33;14.70;99.90
22779;DHT22;11556;51.194;3.800;2022-10-15T04:41:04;14.70;99.90
22779;DHT22;11556;51.194;3.800;2022-10-15T04:43:31;14.60;99.90
22779;DHT22;11556;51.194;3.800;2022-10-15T04:46:00;14.70;99.90
22779;DHT22;11556;51.194;3.800;2022-10-15T04:48:27;14.70;99.90
22779;DHT22;11556;51.194;3.800;2022-10-15T04:50:53;14.70;99.90
22779;DHT22;11556;51.194;3.800;2022-10-15T04:53:19;14.80;99.90
22779;DHT22;11556;51.194;3.800;2022-10-15T04:55:45;14.70;99.90
22779;DHT22;11556;51.194;3.800;2022-10-15T04:58:11;14.70;99.90
22779;DHT22;11556;51.194;3.800;2022-10-15T05:00:37;14.70;99.90
22779;DHT22;11556;51.194;3.800;2022-10-15T05:03:04;14.80;99.90
22779;DHT22;11556;51.194;3.800;2022-10-15T05:05:31;14.60;99.90
22779;DHT22;11556;51.194;3.800;2022-10-15T05:08:03;14.60;99.90
22779;DHT22;11556;51.194;3.800;2022-10-15T05:10:29;14.60;99.90
22779;DHT22;11556;51.194;3.800;2022-10-15T05:12:54;14.60;99.90
22779;DHT22;11556;51.194;3.800;2022-10-15T05:15:20;14.60;99.90
22779;DHT22;11556;51.194;3.800;2022-10-15T05:17:46;14.60;99.90
22779;DHT22;11556;51.194;3.800;2022-10-15T05:20:11;14.70;99.90
22779;DHT22;11556;51.194;3.800;2022-10-15T05:22:37;14.70;99.90
22779;DHT22;11556;51.194;3.800;2022-10-15T05:25:02;14.60;99.90
22779;DHT22;11556;51.194;3.800;2022-10-15T05:27:28;14.50;99.90
22779;DHT22;11556;51.194;3.800;2022-10-15T05:29:54;14.50;99.90
22779;DHT22;11556;51.194;3.800;2022-10-15T05:32:19;14.50;99.90
22779;DHT22;11556;51.194;3.800;2022-10-15T05:34:45;14.50;99.90
22779;DHT22;11556;51.194;3.800;2022-10-15T05:37:10;14.50;99.90
22779;DHT22;11556;51.194;3.800;2022-10-15T05:39:36;14.50;99.90
22779;DHT22;11556;51.194;3.800;2022-10-15T05:42:01;14.60;99.90
22779;DHT22;11556;51.194;3.800;2022-10-15T05:44:27;14.50;99.90
22779;DHT22;11556;51.194;3.800;2022-10-15T05:46:53;14.60;99.90
22779;DHT22;11556;51.194;3.800;2022-10-15T05:49:18;14.60;99.90
22779;DHT22;11556;51.194;3.800;2022-10-15T05:51:44;14.60;99.90
22779;DHT22;11556;51.194;3.800;2022-10-15T05:54:09;14.60;99.90
22779;DHT22;11556;51.194;3.800;2022-10-15T05:56:35;14.70;99.90
22779;DHT22;11556;51.194;3.800;2022-10-15T05:59:00;14.60;99.90
22779;DHT22;11556;51.194;3.800;2022-10-15T06:01:27;14.60;99.90
22779;DHT22;11556;51.194;3.800;2022-10-15T06:03:53;14.60;99.90
22779;DHT22;11556;51.194;3.800;2022-10-15T06:06:24;14.70;99.90
22779;DHT22;11556;51.194;3.800;2022-10-15T06:08:51;14.70;99.90
22779;DHT22;11556;51.194;3.800;2022-10-15T06:11:17;14.80;99.90
22779;DHT22;11556;51.194;3.800;2022-10-15T06:13:43;14.70;99.90
22779;DHT22;11556;51.194;3.800;2022-10-15T06:16:10;14.80;99.90
22779;DHT22;11556;51.194;3.800;2022-10-15T06:18:36;14.90;99.90
22779;DHT22;11556;51.194;3.800;2022-10-15T06:21:03;14.90;99.90
22779;DHT22;11556;51.194;3.800;2022-10-15T06:23:29;15.00;99.90
22779;DHT22;11556;51.194;3.800;2022-10-15T06:25:55;15.00;99.90
22779;DHT22;11556;51.194;3.800;2022-10-15T06:28:21;15.00;99.90
22779;DHT22;11556;51.194;3.800;2022-10-15T06:30:46;14.80;99.90
22779;DHT22;11556;51.194;3.800;2022-10-15T06:33:12;14.80;99.90
22779;DHT22;11556;51.194;3.800;2022-10-15T06:35:40;14.90;99.90
22779;DHT22;11556;51.194;3.800;2022-10-15T06:38:06;15.00;99.90
22779;DHT22;11556;51.194;3.800;2022-10-15T06:40:31;15.20;99.90
22779;DHT22;11556;51.194;3.800;2022-10-15T06:43:08;15.30;99.90
22779;DHT22;11556;51.194;3.800;2022-10-15T06:45:36;15.10;99.90
22779;DHT22;11556;51.194;3.800;2022-10-15T06:48:03;15.10;99.90
22779;DHT22;11556;51.194;3.800;2022-10-15T06:50:33;15.10;99.90
22779;DHT22;11556;51.194;3.800;2022-10-15T06:52:59;15.00;99.90
22779;DHT22;11556;51.194;3.800;2022-10-15T06:55:25;15.00;99.90
22779;DHT22;11556;51.194;3.800;2022-10-15T06:57:53;15.00;99.90
22779;DHT22;11556;51.194;3.800;2022-10-15T07:00:19;15.10;99.90
22779;DHT22;11556;51.194;3.800;2022-10-15T07:02:44;15.10;99.90
22779;DHT22;11556;51.194;3.800;2022-10-15T07:05:10;15.20;99.90
22779;DHT22;11556;51.194;3.800;2022-10-15T07:07:35;15.30;99.90
22779;DHT22;11556;51.194;3.800;2022-10-15T07:10:01;15.20;99.90
22779;DHT22;11556;51.194;3.800;2022-10-15T07:12:27;15.30;99.90
22779;DHT22;11556;51.194;3.800;2022-10-15T07:14:52;15.10;99.90
22779;DHT22;11556;51.194;3.800;2022-10-15T07:17:18;15.30;99.90
22779;DHT22;11556;51.194;3.800;2022-10-15T07:19:43;15.40;99.90
22779;DHT22;11556;51.194;3.800;2022-10-15T07:22:10;15.60;99.90
22779;DHT22;11556;51.194;3.800;2022-10-15T07:24:35;15.50;99.90
22779;DHT22;11556;51.194;3.800;2022-10-15T07:27:01;15.40;99.90
22779;DHT22;11556;51.194;3.800;2022-10-15T07:29:27;15.30;99.90
22779;DHT22;11556;51.194;3.800;2022-10-15T07:31:52;15.30;99.90
22779;DHT22;11556;51.194;3.800;2022-10-15T07:34:18;15.20;99.90
22779;DHT22;11556;51.194;3.800;2022-10-15T07:36:43;15.10;99.90
22779;DHT22;11556;51.194;3.800;2022-10-15T07:39:09;15.20;99.90
22779;DHT22;11556;51.194;3.800;2022-10-15T07:41:35;15.00;99.90
22779;DHT22;11556;51.194;3.800;2022-10-15T07:44:01;15.00;99.90
22779;DHT22;11556;51.194;3.800;2022-10-15T07:46:26;15.00;99.90
22779;DHT22;11556;51.194;3.800;2022-10-15T07:48:52;15.00;99.90
22779;DHT22;11556;51.194;3.800;2022-10-15T07:51:17;15.00;99.90
22779;DHT22;11556;51.194;3.800;2022-10-15T07:53:43;14.90;99.90
22779;DHT22;11556;51.194;3.800;2022-10-15T07:56:10;14.80;99.90
22779;DHT22;11556;51.194;3.800;2022-10-15T07:58:37;14.80;99.90
22779;DHT22;11556;51.194;3.800;2022-10-15T08:01:04;14.80;99.90
22779;DHT22;11556;51.194;3.800;2022-10-15T08:03:30;14.80;99.90
22779;DHT22;11556;51.194;3.800;2022-10-15T08:05:56;14.90;99.90
22779;DHT22;11556;51.194;3.800;2022-10-15T08:08:23;14.90;99.90
22779;DHT22;11556;51.194;3.800;2022-10-15T08:10:49;14.80;99.90
22779;DHT22;11556;51.194;3.800;2022-10-15T08:13:14;14.70;99.90
22779;DHT22;11556;51.194;3.800;2022-10-15T08:15:41;14.80;99.90
22779;DHT22;11556;51.194;3.800;2022-10-15T08:18:10;14.80;99.90
22779;DHT22;11556;51.194;3.800;2022-10-15T08:20:39;14.90;99.90
22779;DHT22;11556;51.194;3.800;2022-10-15T08:23:05;14.90;99.90
22779;DHT22;11556;51.194;3.800;2022-10-15T08:25:37;14.90;99.90
22779;DHT22;11556;51.194;3.800;2022-10-15T08:28:03;15.10;99.90
22779;DHT22;11556;51.194;3.800;2022-10-15T08:30:28;15.30;99.90
22779;DHT22;11556;51.194;3.800;2022-10-15T08:32:54;15.40;99.90
22779;DHT22;11556;51.194;3.800;2022-10-15T08:35:20;15.50;99.90
22779;DHT22;11556;51.194;3.800;2022-10-15T08:37:46;15.70;99.90
22779;DHT22;11556;51.194;3.800;2022-10-15T08:40:12;15.60;99.90
22779;DHT22;11556;51.194;3.800;2022-10-15T08:42:41;15.60;99.90
22779;DHT22;11556;51.194;3.800;2022-10-15T08:45:15;15.70;99.90
22779;DHT22;11556;51.194;3.800;2022-10-15T08:48:03;15.80;99.90
22779;DHT22;11556;51.194;3.800;2022-10-15T08:50:41;15.90;99.90
22779;DHT22;11556;51.194;3.800;2022-10-15T08:53:13;16.00;99.90
22779;DHT22;11556;51.194;3.800;2022-10-15T08:55:39;15.90;99.90
22779;DHT22;11556;51.194;3.800;2022-10-15T08:58:14;16.00;99.90
22779;DHT22;11556;51.194;3.800;2022-10-15T09:03:50;16.20;99.90
22779;DHT22;11556;51.194;3.800;2022-10-15T09:06:22;16.30;99.90
22779;DHT22;11556;51.194;3.800;2022-10-15T09:09:11;16.50;99.90
22779;DHT22;11556;51.194;3.800;2022-10-15T09:14:32;16.60;99.90
22779;DHT22;11556;51.194;3.800;2022-10-15T09:17:03;16.80;99.90
22779;DHT22;11556;51.194;3.800;2022-10-15T09:19:31;16.80;99.90
22779;DHT22;11556;51.194;3.800;2022-10-15T09:22:00;16.80;99.90
22779;DHT22;11556;51.194;3.800;2022-10-15T09:24:28;16.90;99.90
22779;DHT22;11556;51.194;3.800;2022-10-15T09:29:51;17.20;99.90
22779;DHT22;11556;51.194;3.800;2022-10-15T09:32:28;17.30;99.90
22779;DHT22;11556;51.194;3.800;2022-10-15T09:35:25;17.30;99.90
22779;DHT22;11556;51.194;3.800;2022-10-15T09:43:09;17.70;99.90
22779;DHT22;11556;51.194;3.800;2022-10-15T09:45:36;17.90;99.90
22779;DHT22;11556;51.194;3.800;2022-10-15T09:48:12;18.10;99.90
22779;DHT22;11556;51.194;3.800;2022-10-15T09:50:43;18.20;99.90
22779;DHT22;11556;51.194;3.800;2022-10-15T09:58:29;18.40;99.90
22779;DHT22;11556;51.194;3.800;2022-10-15T10:01:06;18.30;99.90
22779;DHT22;11556;51.194;3.800;2022-10-15T10:03:34;18.20;99.90
22779;DHT22;11556;51.194;3.800;2022-10-15T10:06:06;18.40;99.90
22779;DHT22;11556;51.194;3.800;2022-10-15T10:09:18;18.50;99.90
22779;DHT22;11556;51.194;3.800;2022-10-15T10:11:25;18.30;99.90
22779;DHT22;11556;51.194;3.800;2022-10-15T10:13:55;18.30;99.90
22779;DHT22;11556;51.194;3.800;2022-10-15T10:16:21;18.50;99.90
22779;DHT22;11556;51.194;3.800;2022-10-15T10:19:11;18.60;99.90
22779;DHT22;11556;51.194;3.800;2022-10-15T10:21:38;18.70;99.90
22779;DHT22;11556;51.194;3.800;2022-10-15T10:26:46;18.60;99.90
22779;DHT22;11556;51.194;3.800;2022-10-15T10:29:18;18.70;99.90
22779;DHT22;11556;51.194;3.800;2022-10-15T10:31:44;18.70;99.90
22779;DHT22;11556;51.194;3.800;2022-10-15T10:34:15;18.70;99.90
22779;DHT22;11556;51.194;3.800;2022-10-15T10:36:41;18.70;99.90
22779;DHT22;11556;51.194;3.800;2022-10-15T10:41:54;18.70;99.90
22779;DHT22;11556;51.194;3.800;2022-10-15T10:44:27;18.80;99.90
22779;DHT22;11556;51.194;3.800;2022-10-15T10:49:38;19.30;99.90
22779;DHT22;11556;51.194;3.800;2022-10-15T10:52:05;19.50;99.90
22779;DHT22;11556;51.194;3.800;2022-10-15T10:54:31;19.50;99.90
22779;DHT22;11556;51.194;3.800;2022-10-15T10:56:58;19.70;99.90
22779;DHT22;11556;51.194;3.800;2022-10-15T10:59:34;19.90;99.90
22779;DHT22;11556;51.194;3.800;2022-10-15T11:02:01;20.00;99.90
22779;DHT22;11556;51.194;3.800;2022-10-15T11:04:31;20.10;99.90
22779;DHT22;11556;51.194;3.800;2022-10-15T11:07:04;20.10;99.90
22779;DHT22;11556;51.194;3.800;2022-10-15T11:09:47;20.10;99.90
22779;DHT22;11556;51.194;3.800;2022-10-15T11:15:17;20.40;99.90
22779;DHT22;11556;51.194;3.800;2022-10-15T11:37:36;20.70;99.90
22779;DHT22;11556;51.194;3.800;2022-10-15T11:40:19;21.10;99.90
22779;DHT22;11556;51.194;3.800;2022-10-15T11:42:54;21.30;99.90
22779;DHT22;11556;51.194;3.800;2022-10-15T11:45:51;21.80;99.90
22779;DHT22;11556;51.194;3.800;2022-10-15T11:54:41;22.90;99.90
22779;DHT22;11556;51.194;3.800;2022-10-15T11:57:12;22.80;99.90
22779;DHT22;11556;51.194;3.800;2022-10-15T11:59:53;22.90;99.90
22779;DHT22;11556;51.194;3.800;2022-10-15T12:02:37;23.20;99.90
22779;DHT22;11556;51.194;3.800;2022-10-15T12:05:09;23.60;99.90
22779;DHT22;11556;51.194;3.800;2022-10-15T12:07:40;24.60;99.90
22779;DHT22;11556;51.194;3.800;2022-10-15T12:10:28;24.70;99.90
22779;DHT22;11556;51.194;3.800;2022-10-15T12:13:17;24.40;99.90
22779;DHT22;11556;51.194;3.800;2022-10-15T12:16:06;24.40;99.90
22779;DHT22;11556;51.194;3.800;2022-10-15T12:19:09;24.40;99.90
22779;DHT22;11556;51.194;3.800;2022-10-15T12:29:39;23.00;99.90
22779;DHT22;11556;51.194;3.800;2022-10-15T12:32:14;22.80;99.90
22779;DHT22;11556;51.194;3.800;2022-10-15T12:34:45;22.60;99.90
22779;DHT22;11556;51.194;3.800;2022-10-15T12:37:18;22.70;99.90
22779;DHT22;11556;51.194;3.800;2022-10-15T12:39:44;22.90;99.90
22779;DHT22;11556;51.194;3.800;2022-10-15T12:42:25;23.70;99.90
22779;DHT22;11556;51.194;3.800;2022-10-15T12:44:52;24.40;99.90
22779;DHT22;11556;51.194;3.800;2022-10-15T12:47:49;25.20;98.90
22779;DHT22;11556;51.194;3.800;2022-10-15T12:50:26;24.80;98.00
22779;DHT22;11556;51.194;3.800;2022-10-15T12:55:43;24.00;99.70
22779;DHT22;11556;51.194;3.800;2022-10-15T12:58:31;24.00;99.90
22779;DHT22;11556;51.194;3.800;2022-10-15T13:00:57;24.40;98.60
22779;DHT22;11556;51.194;3.800;2022-10-15T13:16:57;25.90;91.60
22779;DHT22;11556;51.194;3.800;2022-10-15T13:19:35;25.60;91.60
22779;DHT22;11556;51.194;3.800;2022-10-15T13:22:03;25.10;92.50
22779;DHT22;11556;51.194;3.800;2022-10-15T13:24:39;24.60;94.10
22779;DHT22;11556;51.194;3.800;2022-10-15T13:27:14;24.00;94.40
22779;DHT22;11556;51.194;3.800;2022-10-15T13:29:53;23.40;97.70
22779;DHT22;11556;51.194;3.800;2022-10-15T13:32:19;22.90;98.70
22779;DHT22;11556;51.194;3.800;2022-10-15T13:34:46;22.90;99.50
22779;DHT22;11556;51.194;3.800;2022-10-15T13:37:16;22.90;99.90
22779;DHT22;11556;51.194;3.800;2022-10-15T13:39:44;23.10;99.90
22779;DHT22;11556;51.194;3.800;2022-10-15T13:42:17;23.10;99.10
22779;DHT22;11556;51.194;3.800;2022-10-15T13:44:54;23.00;99.90
22779;DHT22;11556;51.194;3.800;2022-10-15T13:47:33;23.00;99.60
22779;DHT22;11556;51.194;3.800;2022-10-15T13:55:46;23.80;98.40
22779;DHT22;11556;51.194;3.800;2022-10-15T13:58:33;23.80;97.90
22779;DHT22;11556;51.194;3.800;2022-10-15T14:01:14;23.80;99.30
22779;DHT22;11556;51.194;3.800;2022-10-15T14:03:58;24.30;97.30
22779;DHT22;11556;51.194;3.800;2022-10-15T14:06:27;24.90;96.50
22779;DHT22;11556;51.194;3.800;2022-10-15T14:11:28;24.80;94.80
22779;DHT22;11556;51.194;3.800;2022-10-15T14:13:56;25.30;93.40
22779;DHT22;11556;51.194;3.800;2022-10-15T14:16:51;25.60;91.70
22779;DHT22;11556;51.194;3.800;2022-10-15T14:19:18;25.90;92.00
22779;DHT22;11556;51.194;3.800;2022-10-15T14:21:46;25.60;91.40
22779;DHT22;11556;51.194;3.800;2022-10-15T14:24:34;25.10;91.60
22779;DHT22;11556;51.194;3.800;2022-10-15T14:27:06;24.80;92.10
22779;DHT22;11556;51.194;3.800;2022-10-15T14:29:46;24.50;93.00
22779;DHT22;11556;51.194;3.800;2022-10-15T14:35:00;24.70;92.80
22779;DHT22;11556;51.194;3.800;2022-10-15T14:37:37;24.90;91.80
22779;DHT22;11556;51.194;3.800;2022-10-15T14:42:36;24.00;90.70
22779;DHT22;11556;51.194;3.800;2022-10-15T14:48:07;23.70;92.20
22779;DHT22;11556;51.194;3.800;2022-10-15T14:50:37;23.40;92.90
22779;DHT22;11556;51.194;3.800;2022-10-15T14:53:08;23.40;92.60
22779;DHT22;11556;51.194;3.800;2022-10-15T14:55:37;23.20;93.10
22779;DHT22;11556;51.194;3.800;2022-10-15T14:58:08;23.40;93.20
22779;DHT22;11556;51.194;3.800;2022-10-15T15:00:40;23.50;94.00
22779;DHT22;11556;51.194;3.800;2022-10-15T15:03:10;23.70;92.60
22779;DHT22;11556;51.194;3.800;2022-10-15T15:05:48;23.20;93.00
22779;DHT22;11556;51.194;3.800;2022-10-15T15:08:14;23.00;94.50
22779;DHT22;11556;51.194;3.800;2022-10-15T15:10:41;22.60;95.80
22779;DHT22;11556;51.194;3.800;2022-10-15T15:13:10;22.60;96.00
22779;DHT22;11556;51.194;3.800;2022-10-15T15:15:38;22.80;96.60
22779;DHT22;11556;51.194;3.800;2022-10-15T15:18:04;23.40;95.00
22779;DHT22;11556;51.194;3.800;2022-10-15T15:20:32;23.70;94.10
22779;DHT22;11556;51.194;3.800;2022-10-15T15:22:58;23.80;93.40
22779;DHT22;11556;51.194;3.800;2022-10-15T15:25:30;23.70;93.30
22779;DHT22;11556;51.194;3.800;2022-10-15T15:27:58;23.50;93.30
22779;DHT22;11556;51.194;3.800;2022-10-15T15:30:27;23.00;94.20
22779;DHT22;11556;51.194;3.800;2022-10-15T15:32:53;22.90;93.30
22779;DHT22;11556;51.194;3.800;2022-10-15T15:35:23;22.40;95.70
22779;DHT22;11556;51.194;3.800;2022-10-15T15:37:50;22.00;94.70
22779;DHT22;11556;51.194;3.800;2022-10-15T15:40:15;21.80;94.40
22779;DHT22;11556;51.194;3.800;2022-10-15T15:42:41;21.60;94.30
22779;DHT22;11556;51.194;3.800;2022-10-15T15:45:19;21.50;94.40
22779;DHT22;11556;51.194;3.800;2022-10-15T15:47:45;21.30;95.40
22779;DHT22;11556;51.194;3.800;2022-10-15T15:50:11;21.10;96.10
22779;DHT22;11556;51.194;3.800;2022-10-15T15:52:37;21.10;96.30
22779;DHT22;11556;51.194;3.800;2022-10-15T15:55:03;21.10;96.30
22779;DHT22;11556;51.194;3.800;2022-10-15T15:57:29;20.90;96.90
22779;DHT22;11556;51.194;3.800;2022-10-15T15:59:54;20.90;95.90
22779;DHT22;11556;51.194;3.800;2022-10-15T16:02:20;20.60;96.70
22779;DHT22;11556;51.194;3.800;2022-10-15T16:04:45;20.70;97.20
22779;DHT22;11556;51.194;3.800;2022-10-15T16:07:11;20.60;97.10
22779;DHT22;11556;51.194;3.800;2022-10-15T16:09:37;20.60;97.30
22779;DHT22;11556;51.194;3.800;2022-10-15T16:12:03;20.50;97.30
22779;DHT22;11556;51.194;3.800;2022-10-15T16:14:29;20.40;97.60
22779;DHT22;11556;51.194;3.800;2022-10-15T16:16:54;20.10;98.50
22779;DHT22;11556;51.194;3.800;2022-10-15T16:19:20;19.90;99.30
22779;DHT22;11556;51.194;3.800;2022-10-15T16:21:45;19.80;99.80
22779;DHT22;11556;51.194;3.800;2022-10-15T16:24:11;19.50;99.90
22779;DHT22;11556;51.194;3.800;2022-10-15T16:26:37;19.30;99.90
22779;DHT22;11556;51.194;3.800;2022-10-15T16:29:03;19.10;99.90
22779;DHT22;11556;51.194;3.800;2022-10-15T16:31:28;18.80;99.90
22779;DHT22;11556;51.194;3.800;2022-10-15T16:33:55;18.60;99.90
22779;DHT22;11556;51.194;3.800;2022-10-15T16:36:21;18.40;99.90
22779;DHT22;11556;51.194;3.800;2022-10-15T16:38:47;18.30;99.90
22779;DHT22;11556;51.194;3.800;2022-10-15T16:41:14;18.20;99.90
22779;DHT22;11556;51.194;3.800;2022-10-15T16:43:40;18.10;99.90
22779;DHT22;11556;51.194;3.800;2022-10-15T16:46:05;18.00;99.90
22779;DHT22;11556;51.194;3.800;2022-10-15T16:48:32;17.90;99.90
22779;DHT22;11556;51.194;3.800;2022-10-15T16:53:26;17.70;99.90
22779;DHT22;11556;51.194;3.800;2022-10-15T16:55:52;17.60;99.90
22779;DHT22;11556;51.194;3.800;2022-10-15T16:58:18;17.50;99.90
22779;DHT22;11556;51.194;3.800;2022-10-15T17:00:44;17.40;99.90
22779;DHT22;11556;51.194;3.800;2022-10-15T17:03:09;17.20;99.90
22779;DHT22;11556;51.194;3.800;2022-10-15T17:05:35;17.10;99.90
22779;DHT22;11556;51.194;3.800;2022-10-15T17:08:00;17.10;99.90
22779;DHT22;11556;51.194;3.800;2022-10-15T17:10:26;17.00;99.90
22779;DHT22;11556;51.194;3.800;2022-10-15T17:12:52;17.00;99.90
22779;DHT22;11556;51.194;3.800;2022-10-15T17:15:17;17.00;99.90
22779;DHT22;11556;51.194;3.800;2022-10-15T17:17:43;16.90;99.90
22779;DHT22;11556;51.194;3.800;2022-10-15T17:20:09;16.90;99.90
22779;DHT22;11556;51.194;3.800;2022-10-15T17:22:34;16.80;99.90
22779;DHT22;11556;51.194;3.800;2022-10-15T17:25:01;16.80;99.90
22779;DHT22;11556;51.194;3.800;2022-10-15T17:27:27;16.80;99.90
22779;DHT22;11556;51.194;3.800;2022-10-15T17:29:53;16.80;99.90
22779;DHT22;11556;51.194;3.800;2022-10-15T17:32:18;16.80;99.90
22779;DHT22;11556;51.194;3.800;2022-10-15T17:34:44;16.70;99.90
22779;DHT22;11556;51.194;3.800;2022-10-15T17:37:09;16.70;99.90
22779;DHT22;11556;51.194;3.800;2022-10-15T17:39:35;16.70;99.90
22779;DHT22;11556;51.194;3.800;2022-10-15T17:42:01;16.60;99.90
22779;DHT22;11556;51.194;3.800;2022-10-15T17:44:26;16.60;99.90